Time;durP1;ratioP1;P1;durP2;ratioP2;P2;SDS_P1;SDS_P2;PMS_P1;PMS_P2;Temp;Humidity;BMP_temperature;BMP_pressure;BME280_temperature;BME280_humidity;BME280_pressure;Samples;Min_cycle;Max_cycle;Signal;HPM_P1;HPM_P2
2021/08/16 00:00:22;;;;;;;13.40;6.45;;;;;;;21.86;94.31;95890.41;4976029;28;20211;-69
2021/08/16 00:02:48;;;;;;;14.95;6.32;;;;;;;21.90;94.38;95885.34;4975105;28;20207;-69
2021/08/16 00:05:16;;;;;;;16.08;7.78;;;;;;;21.97;96.02;95891.28;4974756;28;20575;-69
2021/08/16 00:07:43;;;;;;;15.57;7.28;;;;;;;21.94;95.84;95875.72;4975477;28;20587;-69
2021/08/16 00:10:12;;;;;;;14.60;8.43;;;;;;;22.33;95.55;95870.69;4975723;28;20203;-69
2021/08/16 00:12:39;;;;;;;19.00;9.88;;;;;;;22.04;98.29;95872.03;4975217;28;20211;-69
2021/08/16 00:15:07;;;;;;;22.80;10.10;;;;;;;22.30;97.79;95870.38;4975413;28;20229;-69
2021/08/16 00:17:33;;;;;;;20.95;10.38;;;;;;;22.03;98.49;95868.81;4974128;28;20199;-69
2021/08/16 00:20:00;;;;;;;20.13;9.43;;;;;;;22.17;97.33;95871.63;4975452;28;20203;-69
2021/08/16 00:22:27;;;;;;;22.35;11.77;;;;;;;22.21;98.65;95856.63;4975172;28;20636;-69
2021/08/16 00:24:53;;;;;;;20.08;10.65;;;;;;;21.97;98.72;95861.78;4975097;28;20230;-69
2021/08/16 00:27:21;;;;;;;16.58;8.55;;;;;;;22.13;96.20;95859.78;4974928;28;20203;-69
2021/08/16 00:29:47;;;;;;;25.45;10.75;;;;;;;22.04;97.63;95859.72;4974883;28;21080;-69
2021/08/16 00:32:14;;;;;;;17.58;8.02;;;;;;;21.75;95.93;95853.81;4975673;28;20207;-69
2021/08/16 00:34:40;;;;;;;13.63;7.97;;;;;;;21.83;94.79;95857.91;4974441;28;20254;-69
2021/08/16 00:37:07;;;;;;;18.38;9.48;;;;;;;21.86;96.39;95850.16;4974717;28;20211;-69
2021/08/16 00:39:33;;;;;;;19.63;9.75;;;;;;;21.87;96.41;95859.00;4974783;28;20204;-69
2021/08/16 00:42:00;;;;;;;25.45;10.00;;;;;;;21.84;96.13;95856.84;4975537;28;20207;-69
2021/08/16 00:44:28;;;;;;;17.55;8.60;;;;;;;22.04;95.43;95848.97;4974403;28;20234;-69
2021/08/16 00:46:55;;;;;;;17.60;8.20;;;;;;;21.90;94.38;95847.78;4974547;28;20207;-69
2021/08/16 00:49:21;;;;;;;16.02;7.63;;;;;;;21.78;94.07;95853.31;4975166;28;20221;-69
2021/08/16 00:51:48;;;;;;;18.98;10.27;;;;;;;21.81;96.61;95854.69;4975073;28;20210;-69
2021/08/16 00:54:15;;;;;;;18.10;10.05;;;;;;;21.89;97.10;95856.88;4975884;28;20235;-69
2021/08/16 00:56:41;;;;;;;21.42;10.73;;;;;;;21.94;96.82;95862.31;4977990;28;20207;-69
2021/08/16 00:59:10;;;;;;;24.00;11.23;;;;;;;22.09;97.71;95855.97;4978563;28;20199;-69
2021/08/16 01:01:39;;;;;;;17.30;10.18;;;;;;;22.14;97.54;95856.00;4978265;28;20276;-69
2021/08/16 01:04:05;;;;;;;24.08;10.43;;;;;;;22.02;97.66;95851.91;4978205;28;20227;-69
2021/08/16 01:06:32;;;;;;;18.33;10.55;;;;;;;22.02;100.00;95856.47;4977628;28;20207;-69
2021/08/16 01:08:58;;;;;;;20.67;11.88;;;;;;;21.99;100.00;95846.25;4977189;28;20229;-69
2021/08/16 01:11:25;;;;;;;22.20;11.10;;;;;;;22.04;100.00;95851.66;4978056;28;20214;-69
2021/08/16 01:13:52;;;;;;;18.17;11.18;;;;;;;22.11;99.33;95851.16;4977805;28;21133;-69
2021/08/16 01:16:19;;;;;;;17.80;11.23;;;;;;;22.25;99.74;95852.34;4977225;28;20207;-69
2021/08/16 01:18:48;;;;;;;27.17;12.63;;;;;;;22.42;99.97;95852.22;4978092;28;20203;-69
2021/08/16 01:21:19;;;;;;;24.63;12.88;;;;;;;22.37;100.00;95844.13;4978349;28;20211;-69
2021/08/16 01:23:46;;;;;;;19.80;11.40;;;;;;;22.34;100.00;95855.38;4977863;28;20242;-69
2021/08/16 01:26:13;;;;;;;20.48;11.43;;;;;;;22.04;100.00;95853.25;4976987;28;20203;-69
2021/08/16 01:28:41;;;;;;;20.52;10.80;;;;;;;22.07;100.00;95842.03;4977563;28;21109;-69
2021/08/16 01:31:08;;;;;;;24.23;11.82;;;;;;;22.19;100.00;95834.59;4977643;28;20215;-69
2021/08/16 01:33:36;;;;;;;22.23;11.70;;;;;;;22.17;100.00;95831.38;4977620;28;20223;-69
2021/08/16 01:36:02;;;;;;;26.73;13.77;;;;;;;22.24;100.00;95823.88;4977161;28;20218;-69
2021/08/16 01:38:31;;;;;;;26.30;13.90;;;;;;;22.45;100.00;95819.47;4978408;28;20199;-69
2021/08/16 01:40:58;;;;;;;28.55;14.65;;;;;;;22.29;100.00;95825.84;4977220;28;20230;-69
2021/08/16 01:43:25;;;;;;;27.65;13.90;;;;;;;22.31;100.00;95819.16;4977552;28;21185;-69
2021/08/16 01:45:53;;;;;;;22.75;13.75;;;;;;;22.63;100.00;95821.72;4977195;28;20203;-69
2021/08/16 01:48:19;;;;;;;24.45;13.10;;;;;;;22.43;100.00;95822.44;4977784;28;20264;-69
2021/08/16 01:50:47;;;;;;;24.60;15.15;;;;;;;22.48;100.00;95833.19;4977351;28;20203;-69
2021/08/16 01:53:14;;;;;;;30.33;14.70;;;;;;;22.48;100.00;95824.31;4977960;28;20230;-69
2021/08/16 01:55:41;;;;;;;28.30;14.75;;;;;;;22.61;100.00;95818.50;4976240;28;20329;-69
2021/08/16 01:58:09;;;;;;;29.70;13.05;;;;;;;22.78;100.00;95825.28;4977332;28;20754;-69
2021/08/16 02:00:36;;;;;;;22.45;12.95;;;;;;;22.60;100.00;95828.41;4977588;28;20567;-69
2021/08/16 02:03:04;;;;;;;21.75;12.68;;;;;;;22.61;100.00;95829.25;4977378;28;20223;-69
2021/08/16 02:05:31;;;;;;;29.60;12.40;;;;;;;22.38;100.00;95819.72;4976114;28;20208;-69
2021/08/16 02:07:58;;;;;;;26.25;11.95;;;;;;;22.22;100.00;95817.16;4976935;28;20883;-69
2021/08/16 02:10:24;;;;;;;24.40;12.73;;;;;;;22.36;100.00;95816.47;4977183;28;21016;-69
2021/08/16 02:12:51;;;;;;;22.48;12.20;;;;;;;22.31;100.00;95819.16;4977094;28;20211;-69
2021/08/16 02:15:17;;;;;;;27.73;12.35;;;;;;;22.28;100.00;95816.94;4976664;28;21293;-69
2021/08/16 02:17:44;;;;;;;26.08;13.18;;;;;;;22.29;100.00;95825.84;4976998;28;20352;-69
2021/08/16 02:20:12;;;;;;;27.20;12.80;;;;;;;22.45;100.00;95830.22;4977149;28;20215;-69
2021/08/16 02:22:39;;;;;;;22.33;13.35;;;;;;;22.43;100.00;95830.47;4976904;28;20207;-69
2021/08/16 02:25:07;;;;;;;24.17;13.30;;;;;;;22.58;100.00;95837.81;4976982;28;20250;-69
2021/08/16 02:27:33;;;;;;;23.13;13.23;;;;;;;22.43;100.00;95835.84;4976376;28;21209;-69
2021/08/16 02:30:00;;;;;;;23.33;13.27;;;;;;;22.24;100.00;95850.72;4977294;28;20582;-70
2021/08/16 02:32:26;;;;;;;30.73;13.98;;;;;;;22.35;100.00;95841.72;4977333;28;20543;-69
2021/08/16 02:34:53;;;;;;;23.77;13.23;;;;;;;22.48;100.00;95835.88;4973631;28;20231;-69
2021/08/16 02:37:21;;;;;;;25.58;12.63;;;;;;;22.71;100.00;95832.78;4975593;28;20582;-69
2021/08/16 02:39:47;;;;;;;29.05;13.75;;;;;;;22.57;100.00;95853.13;4977106;28;20876;-69
2021/08/16 02:42:14;;;;;;;22.17;13.07;;;;;;;22.64;100.00;95861.75;4977071;28;20207;-69
2021/08/16 02:44:40;;;;;;;27.13;13.50;;;;;;;22.67;100.00;95872.00;4976769;28;20226;-69
2021/08/16 02:47:07;;;;;;;21.33;12.85;;;;;;;22.74;100.00;95889.47;4975604;28;20218;-69
2021/08/16 02:49:33;;;;;;;26.83;13.40;;;;;;;22.62;100.00;95876.50;4977032;28;20227;-69
2021/08/16 02:52:00;;;;;;;25.90;14.20;;;;;;;22.64;100.00;95869.00;4976731;28;20203;-69
2021/08/16 02:54:27;;;;;;;24.08;13.85;;;;;;;22.88;100.00;95863.75;4976424;28;20242;-69
2021/08/16 02:56:54;;;;;;;27.85;15.68;;;;;;;22.54;100.00;95860.88;4976344;28;20207;-69
2021/08/16 02:59:20;;;;;;;31.02;15.95;;;;;;;22.62;100.00;95845.09;4976384;28;20204;-69
2021/08/16 03:01:47;;;;;;;32.30;16.60;;;;;;;22.52;100.00;95896.06;4976514;28;20207;-69
2021/08/16 03:04:13;;;;;;;31.10;16.40;;;;;;;22.69;100.00;95875.22;4976937;28;20226;-69
2021/08/16 03:06:40;;;;;;;25.75;15.38;;;;;;;22.32;100.00;95879.81;4975131;28;20215;-69
2021/08/16 03:09:07;;;;;;;26.13;16.15;;;;;;;22.57;100.00;95839.69;4975308;28;20227;-69
2021/08/16 03:11:34;;;;;;;28.85;16.80;;;;;;;23.03;100.00;95795.88;4977063;28;20214;-69
2021/08/16 03:14:01;;;;;;;32.60;18.17;;;;;;;22.83;100.00;95796.56;4976454;28;20713;-69
2021/08/16 03:16:27;;;;;;;24.40;15.70;;;;;;;22.82;100.00;95803.03;4974276;28;20210;-69
2021/08/16 03:18:54;;;;;;;37.60;19.23;;;;;;;22.78;100.00;95803.78;4976034;28;20214;-69
2021/08/16 03:21:20;;;;;;;31.80;18.50;;;;;;;22.84;100.00;95830.41;4976529;28;20204;-69
2021/08/16 03:23:47;;;;;;;32.22;17.23;;;;;;;22.65;100.00;95820.41;4975566;28;20233;-69
2021/08/16 03:26:13;;;;;;;36.28;17.67;;;;;;;22.87;100.00;95816.47;4975475;28;20687;-69
2021/08/16 03:28:42;;;;;;;31.65;17.35;;;;;;;22.78;100.00;95820.75;4975581;28;20681;-69
2021/08/16 03:31:08;;;;;;;31.75;16.70;;;;;;;22.35;100.00;95824.78;4975505;28;20207;-69
2021/08/16 03:33:35;;;;;;;29.85;16.92;;;;;;;22.62;100.00;95828.97;4975666;28;20223;-69
2021/08/16 03:36:01;;;;;;;32.63;16.20;;;;;;;22.49;100.00;95818.72;4975155;28;20739;-69
2021/08/16 03:38:28;;;;;;;23.35;14.55;;;;;;;22.46;100.00;95815.72;4975570;28;20201;-69
2021/08/16 03:40:54;;;;;;;29.90;20.25;;;;;;;22.39;100.00;95810.59;4975797;28;20405;-69
2021/08/16 03:43:20;;;;;;;30.38;14.57;;;;;;;22.41;100.00;95803.06;4975646;28;20730;-69
2021/08/16 03:45:48;;;;;;;24.00;14.80;;;;;;;22.61;100.00;95811.25;4974803;28;20218;-69
2021/08/16 03:48:15;;;;;;;26.65;15.60;;;;;;;22.49;100.00;95813.34;4975644;28;21178;-69
2021/08/16 03:50:42;;;;;;;29.52;14.75;;;;;;;22.40;100.00;95812.22;4975229;28;20739;-69
2021/08/16 03:53:08;;;;;;;29.00;15.27;;;;;;;22.45;100.00;95816.78;4975593;28;20234;-69
2021/08/16 03:55:34;;;;;;;24.52;13.70;;;;;;;22.40;100.00;95817.59;4974975;28;20215;-69
2021/08/16 03:58:01;;;;;;;29.45;13.73;;;;;;;22.38;100.00;95819.72;4975388;28;20208;-69
2021/08/16 04:00:27;;;;;;;25.65;12.63;;;;;;;22.24;100.00;95818.50;4975538;28;20195;-69
2021/08/16 04:02:55;;;;;;;22.20;12.55;;;;;;;22.20;100.00;95814.72;4976209;28;20302;-69
2021/08/16 04:05:22;;;;;;;20.35;10.75;;;;;;;22.04;100.00;95813.00;4974459;28;20199;-69
2021/08/16 04:07:48;;;;;;;18.65;11.23;;;;;;;21.91;100.00;95806.47;4975921;28;20250;-69
2021/08/16 04:10:16;;;;;;;21.42;11.30;;;;;;;22.05;99.67;95809.25;4975330;28;20227;-69
2021/08/16 04:12:43;;;;;;;18.63;11.00;;;;;;;21.87;99.49;95805.34;4974969;28;20211;-69
2021/08/16 04:15:12;;;;;;;14.70;9.52;;;;;;;22.27;98.05;95809.97;4975294;28;20211;-69
2021/08/16 04:17:38;;;;;;;17.48;9.88;;;;;;;22.24;96.13;95804.28;4975964;28;20207;-69
2021/08/16 04:20:09;;;;;;;19.77;9.98;;;;;;;22.08;97.65;95814.13;4974845;28;20214;-69
2021/08/16 04:22:36;;;;;;;19.20;9.38;;;;;;;21.94;97.40;95816.69;4975178;28;20210;-69
2021/08/16 04:25:03;;;;;;;17.77;9.80;;;;;;;21.95;97.46;95818.31;4975057;28;20231;-69
2021/08/16 04:27:30;;;;;;;16.23;9.00;;;;;;;21.81;97.47;95817.13;4975413;28;20203;-69
2021/08/16 04:29:56;;;;;;;16.88;9.85;;;;;;;21.71;97.77;95833.13;4973269;28;20234;-69
2021/08/16 04:32:22;;;;;;;14.18;8.90;;;;;;;21.71;97.18;95828.56;4974698;28;20206;-69
2021/08/16 04:34:49;;;;;;;17.70;8.98;;;;;;;21.61;98.11;95833.03;4975395;28;20223;-69
2021/08/16 04:37:17;;;;;;;22.58;10.55;;;;;;;21.64;98.27;95833.34;4974648;28;20211;-69
2021/08/16 04:39:44;;;;;;;17.13;9.30;;;;;;;21.66;97.61;95846.50;4975171;28;20203;-69
2021/08/16 04:42:10;;;;;;;16.42;9.27;;;;;;;21.60;98.05;95842.97;4974940;28;21126;-69
2021/08/16 04:44:37;;;;;;;15.27;9.88;;;;;;;21.49;97.81;95849.25;4975752;28;20215;-69
2021/08/16 04:47:04;;;;;;;17.33;9.23;;;;;;;21.63;97.81;95852.38;4974161;28;20207;-69
2021/08/16 04:49:30;;;;;;;12.93;8.23;;;;;;;21.66;99.13;95859.91;4975309;28;20223;-67
2021/08/16 04:51:56;;;;;;;18.75;8.70;;;;;;;21.65;97.42;95861.78;4974937;28;20671;-67
2021/08/16 04:54:24;;;;;;;14.95;8.90;;;;;;;21.91;96.29;95873.56;4974620;28;20730;-67
2021/08/16 04:56:51;;;;;;;12.98;8.18;;;;;;;21.82;96.59;95875.88;4974312;28;20943;-68
2021/08/16 04:59:17;;;;;;;13.13;8.68;;;;;;;21.84;96.70;95875.63;4975280;28;20218;-67
2021/08/16 05:01:45;;;;;;;17.40;8.63;;;;;;;21.96;97.11;95886.97;4974528;28;20211;-67
2021/08/16 05:04:11;;;;;;;15.63;8.30;;;;;;;21.97;95.75;95897.50;4975113;28;20222;-67
2021/08/16 05:06:42;;;;;;;13.90;8.60;;;;;;;21.94;96.36;95902.53;4973976;28;20211;-68
2021/08/16 05:09:08;;;;;;;11.48;7.38;;;;;;;21.78;96.13;95906.97;4974475;28;20685;-67
2021/08/16 05:11:37;;;;;;;13.93;7.30;;;;;;;22.16;95.57;95923.69;4974590;28;20203;-65
2021/08/16 05:14:03;;;;;;;12.05;7.40;;;;;;;22.19;94.67;95927.72;4974864;28;20235;-65
2021/08/16 05:16:30;;;;;;;12.18;6.82;;;;;;;22.17;93.26;95927.16;4974206;28;20218;-65
2021/08/16 05:18:57;;;;;;;12.75;6.63;;;;;;;21.97;94.52;95929.69;4974869;28;20210;-66
2021/08/16 05:21:25;;;;;;;11.70;6.80;;;;;;;22.32;94.30;95928.13;4974123;28;20203;-66
2021/08/16 05:23:51;;;;;;;12.80;6.07;;;;;;;22.22;93.54;95927.22;4974421;28;20235;-66
2021/08/16 05:26:18;;;;;;;12.68;6.72;;;;;;;22.09;92.11;95928.44;4974298;28;20207;-66
2021/08/16 05:28:45;;;;;;;11.73;6.45;;;;;;;22.21;90.81;95925.59;4974459;28;20211;-66
2021/08/16 05:31:12;;;;;;;14.00;6.50;;;;;;;22.23;91.68;95924.25;4974805;28;20207;-65
2021/08/16 05:33:38;;;;;;;12.13;6.55;;;;;;;22.27;94.05;95927.28;4974437;28;20242;-66
2021/08/16 05:36:05;;;;;;;9.63;6.40;;;;;;;22.32;93.07;95928.13;4973711;28;20211;-66
2021/08/16 05:38:31;;;;;;;10.98;6.30;;;;;;;22.60;93.08;95929.69;4974199;28;20840;-65
2021/08/16 05:40:58;;;;;;;12.68;6.65;;;;;;;22.24;92.56;95933.16;4976660;28;20238;-65
2021/08/16 05:43:24;;;;;;;14.32;6.93;;;;;;;22.39;95.32;95922.53;4977333;28;20227;-65
2021/08/16 05:45:52;;;;;;;13.40;6.82;;;;;;;22.76;93.55;95926.84;4977114;28;20207;-65
2021/08/16 05:48:18;;;;;;;9.52;6.20;;;;;;;22.70;93.22;95925.19;4977596;28;20203;-66
2021/08/16 05:50:45;;;;;;;11.63;6.80;;;;;;;22.70;93.82;95925.19;4977658;28;20223;-65
2021/08/16 05:53:12;;;;;;;12.70;7.22;;;;;;;22.79;92.93;95929.81;4978114;28;20231;-65
2021/08/16 05:55:38;;;;;;;15.98;7.50;;;;;;;22.93;93.06;95933.66;4976527;28;20304;-66
2021/08/16 05:58:05;;;;;;;10.55;6.00;;;;;;;23.25;90.10;95933.59;4977515;28;20699;-65
2021/08/16 06:00:31;;;;;;;11.48;6.20;;;;;;;23.06;90.74;95932.41;4977585;28;20718;-66
2021/08/16 06:02:59;;;;;;;14.35;6.18;;;;;;;23.33;90.33;95926.63;4977186;28;20226;-66
2021/08/16 06:05:25;;;;;;;11.20;6.47;;;;;;;22.91;91.49;95924.22;4976693;28;20226;-68
2021/08/16 06:07:52;;;;;;;11.50;6.35;;;;;;;23.06;90.92;95937.78;4977709;28;20203;-68
2021/08/16 06:10:18;;;;;;;10.07;6.22;;;;;;;23.08;91.51;95932.97;4977020;28;20230;-68
2021/08/16 06:12:45;;;;;;;11.52;6.40;;;;;;;22.99;92.45;95921.09;4977330;28;20218;-68
2021/08/16 06:15:12;;;;;;;11.30;6.07;;;;;;;23.30;91.64;95922.84;4977161;28;20207;-67
2021/08/16 06:17:40;;;;;;;9.98;6.35;;;;;;;23.46;91.25;95928.81;4976760;28;20309;-67
2021/08/16 06:20:10;;;;;;;11.55;6.65;;;;;;;23.79;91.03;95919.53;4976863;28;20239;-68
2021/08/16 06:22:38;;;;;;;13.45;6.78;;;;;;;23.35;90.98;95924.47;4977946;28;20213;-68
2021/08/16 06:25:05;;;;;;;11.52;6.20;;;;;;;23.51;90.98;95930.72;4977203;28;20222;-67
2021/08/16 06:27:31;;;;;;;10.43;6.05;;;;;;;23.41;91.44;95936.88;4976397;28;20206;-68
2021/08/16 06:29:58;;;;;;;9.32;5.60;;;;;;;23.66;90.38;95938.84;4976849;28;20231;-68
2021/08/16 06:32:24;;;;;;;8.70;5.90;;;;;;;23.55;90.45;95932.63;4977710;28;20215;-67
2021/08/16 06:34:51;;;;;;;10.68;5.53;;;;;;;23.65;91.55;95929.13;4976788;28;20231;-68
2021/08/16 06:37:19;;;;;;;8.63;5.63;;;;;;;23.98;91.57;95927.66;4976346;28;20215;-67
2021/08/16 06:39:46;;;;;;;8.05;5.32;;;;;;;23.82;92.31;95927.88;4976690;28;20250;-68
2021/08/16 06:42:12;;;;;;;8.23;5.18;;;;;;;23.34;90.46;95933.63;4976930;28;20203;-68
2021/08/16 06:44:39;;;;;;;9.55;5.55;;;;;;;23.63;91.01;95940.19;4976233;28;20242;-68
2021/08/16 06:47:05;;;;;;;12.57;5.70;;;;;;;23.49;93.06;95946.31;4976272;28;20226;-70
2021/08/16 06:49:32;;;;;;;10.98;5.82;;;;;;;23.70;91.69;95943.47;4976620;28;20227;-68
2021/08/16 06:51:58;;;;;;;9.50;6.15;;;;;;;23.84;92.06;95954.53;4975895;28;20207;-71
2021/08/16 06:54:26;;;;;;;12.90;5.57;;;;;;;23.45;92.81;95958.69;4976466;28;20230;-68
2021/08/16 06:56:52;;;;;;;10.68;6.05;;;;;;;23.11;94.43;95957.44;4975200;28;20210;-69
2021/08/16 06:59:19;;;;;;;9.27;6.13;;;;;;;23.12;94.75;95966.31;4976052;28;20204;-70
2021/08/16 07:01:45;;;;;;;11.63;6.65;;;;;;;22.94;95.61;95972.09;4976175;28;20219;-70
2021/08/16 07:04:12;;;;;;;8.40;5.20;;;;;;;22.77;96.23;95976.81;4973643;28;20231;-69
2021/08/16 07:06:38;;;;;;;10.77;6.53;;;;;;;22.83;96.16;95978.47;4975245;28;20234;-69
2021/08/16 07:09:05;;;;;;;13.48;6.93;;;;;;;22.55;97.16;95972.63;4976306;28;20549;-69
2021/08/16 07:11:33;;;;;;;13.20;6.63;;;;;;;22.80;97.40;95979.78;4975269;28;20227;-70
2021/08/16 07:13:59;;;;;;;13.70;6.88;;;;;;;22.46;97.42;95988.38;4975614;28;20442;-69
2021/08/16 07:16:26;;;;;;;16.00;7.35;;;;;;;22.50;98.34;95981.44;4975058;28;20210;-70
2021/08/16 07:18:52;;;;;;;14.68;7.80;;;;;;;22.62;98.35;95983.94;4975798;28;20203;-69
2021/08/16 07:21:19;;;;;;;17.58;7.88;;;;;;;22.66;98.79;95991.25;4975512;28;20218;-70
2021/08/16 07:23:45;;;;;;;15.30;7.82;;;;;;;22.57;99.72;96002.72;4976455;28;20243;-70
2021/08/16 07:26:12;;;;;;;12.88;8.20;;;;;;;22.62;99.56;95997.38;4974261;28;20354;-70
2021/08/16 07:28:41;;;;;;;16.45;8.52;;;;;;;22.50;98.93;95996.75;4975454;28;20216;-70
2021/08/16 07:31:07;;;;;;;15.27;7.93;;;;;;;22.44;97.13;96003.97;4975679;28;20258;-70
2021/08/16 07:33:34;;;;;;;14.75;8.60;;;;;;;22.20;98.35;95999.94;4975860;28;20227;-70
2021/08/16 07:36:00;;;;;;;11.10;7.45;;;;;;;22.58;96.23;95999.78;4974032;28;20204;-69
2021/08/16 07:38:27;;;;;;;14.77;7.75;;;;;;;22.34;94.71;96005.72;4975806;28;20211;-70
2021/08/16 07:40:53;;;;;;;12.15;7.60;;;;;;;22.40;93.63;96010.91;4975642;28;20199;-70
2021/08/16 07:43:21;;;;;;;13.70;7.60;;;;;;;22.28;92.19;96004.88;4975105;28;20555;-69
2021/08/16 07:45:49;;;;;;;15.68;8.23;;;;;;;22.44;91.21;95995.09;4974788;28;20958;-70
2021/08/16 07:48:16;;;;;;;14.20;9.52;;;;;;;22.66;90.26;96001.16;4975532;28;20260;-70
2021/08/16 07:50:42;;;;;;;14.20;8.50;;;;;;;22.60;89.57;95983.41;4974533;28;20801;-69
2021/08/16 07:53:09;;;;;;;15.95;9.18;;;;;;;22.36;91.26;95985.63;4975208;28;20223;-69
2021/08/16 07:55:35;;;;;;;17.13;9.40;;;;;;;22.49;89.52;95982.53;4974341;28;20215;-69
2021/08/16 07:58:02;;;;;;;15.77;9.52;;;;;;;22.84;88.04;95970.16;4975263;28;20216;-70
2021/08/16 08:00:29;;;;;;;13.60;8.32;;;;;;;22.85;88.99;95984.41;4975285;28;20199;-69
2021/08/16 08:02:56;;;;;;;12.93;7.10;;;;;;;22.68;86.44;96010.59;4974544;28;20211;-70
2021/08/16 08:05:24;;;;;;;13.63;7.50;;;;;;;22.62;85.09;95995.53;4974231;28;20738;-69
2021/08/16 08:07:52;;;;;;;16.55;8.18;;;;;;;22.78;85.88;95998.06;4970755;28;20203;-69
2021/08/16 08:10:20;;;;;;;11.80;6.90;;;;;;;22.57;83.48;96000.84;4975027;28;20600;-70
2021/08/16 08:12:48;;;;;;;13.52;7.82;;;;;;;22.75;83.65;96003.13;4974706;28;20218;-70
2021/08/16 08:15:16;;;;;;;15.02;7.57;;;;;;;22.87;83.61;95999.22;4974690;28;20226;-70
2021/08/16 08:17:42;;;;;;;13.10;7.07;;;;;;;22.63;83.33;96005.19;4974773;28;20203;-69
2021/08/16 08:20:11;;;;;;;13.77;6.88;;;;;;;22.65;83.30;96005.75;4975350;28;20203;-69
2021/08/16 08:22:38;;;;;;;13.23;6.18;;;;;;;22.53;82.62;95999.75;4974142;28;20755;-70
2021/08/16 08:25:06;;;;;;;13.90;7.10;;;;;;;22.66;82.85;95996.63;4974710;28;20230;-69
2021/08/16 08:27:32;;;;;;;14.18;6.82;;;;;;;22.61;82.66;96003.84;4973605;28;20210;-69
2021/08/16 08:29:59;;;;;;;12.88;6.28;;;;;;;22.98;81.95;96000.88;4975093;28;20211;-70
2021/08/16 08:32:25;;;;;;;15.63;6.05;;;;;;;22.77;79.83;96001.81;4974586;28;20214;-69
2021/08/16 08:34:52;;;;;;;12.75;5.80;;;;;;;23.07;79.24;96001.25;4975116;28;20234;-69
2021/08/16 08:37:20;;;;;;;11.63;5.82;;;;;;;23.35;77.03;96015.91;4973868;28;20207;-70
2021/08/16 08:39:47;;;;;;;10.27;5.82;;;;;;;23.02;78.69;96014.66;4974302;28;20208;-70
2021/08/16 08:42:14;;;;;;;12.57;6.20;;;;;;;22.99;78.71;96015.19;4974811;28;20579;-69
2021/08/16 08:44:42;;;;;;;12.57;6.30;;;;;;;23.18;77.10;96009.09;4975333;28;20227;-70
2021/08/16 08:47:09;;;;;;;11.77;5.97;;;;;;;23.51;78.37;96023.00;4974179;28;20366;-69
2021/08/16 08:49:38;;;;;;;13.38;5.88;;;;;;;23.66;76.78;96014.19;4973796;28;20768;-70
2021/08/16 08:52:05;;;;;;;14.25;5.68;;;;;;;23.45;76.96;96021.34;4974536;28;20262;-69
2021/08/16 08:54:35;;;;;;;12.63;6.30;;;;;;;23.11;77.85;96023.84;4974759;28;20238;-69
2021/08/16 08:57:02;;;;;;;12.75;5.97;;;;;;;23.27;79.25;96023.69;4973985;28;20297;-70
2021/08/16 08:59:29;;;;;;;14.85;6.47;;;;;;;23.01;78.89;96018.41;4974334;28;20206;-69
2021/08/16 09:01:56;;;;;;;13.20;5.90;;;;;;;22.92;79.27;96009.16;4974551;28;20222;-69
2021/08/16 09:04:23;;;;;;;12.52;6.32;;;;;;;22.94;80.90;96013.22;4973795;28;20226;-70
2021/08/16 09:06:50;;;;;;;10.70;5.80;;;;;;;23.06;79.00;96010.38;4970608;28;20207;-70
2021/08/16 09:09:17;;;;;;;10.23;6.15;;;;;;;23.23;79.70;96011.00;4974423;28;20668;-70
2021/08/16 09:11:49;;;;;;;14.88;5.97;;;;;;;23.89;76.66;96021.81;4973919;28;20230;-70
2021/08/16 09:14:15;;;;;;;9.77;5.90;;;;;;;23.49;76.96;96006.31;4974170;28;20975;-70
2021/08/16 09:16:44;;;;;;;11.25;5.75;;;;;;;23.85;75.57;96000.00;4976999;28;20203;-70
2021/08/16 09:19:16;;;;;;;13.88;6.22;;;;;;;23.92;77.21;96005.97;4977350;28;20652;-69
2021/08/16 09:21:46;;;;;;;15.15;5.55;;;;;;;23.49;77.02;96005.50;4977063;28;20679;-69
2021/08/16 09:24:13;;;;;;;9.70;5.53;;;;;;;23.76;77.61;96006.97;4977394;28;20634;-70
2021/08/16 09:26:42;;;;;;;14.00;5.90;;;;;;;24.09;71.27;96012.72;4976852;28;20208;-70
2021/08/16 09:29:13;;;;;;;7.45;4.15;;;;;;;24.06;69.95;96007.88;4977396;28;20565;-70
2021/08/16 09:31:51;;;;;;;10.55;4.82;;;;;;;24.21;68.66;96015.16;4976853;28;20227;-69
2021/08/16 09:34:27;;;;;;;12.25;4.68;;;;;;;24.01;70.50;96015.16;4977594;28;20280;-70
2021/08/16 09:36:56;;;;;;;10.70;4.53;;;;;;;23.65;69.19;96016.06;4976529;28;20923;-70
2021/08/16 09:39:23;;;;;;;9.07;4.55;;;;;;;24.06;69.94;96012.47;4977535;28;20750;-70
2021/08/16 09:41:57;;;;;;;11.85;4.90;;;;;;;24.55;66.61;96010.97;4976878;28;20607;-70
2021/08/16 09:44:25;;;;;;;9.40;4.68;;;;;;;24.57;67.35;96004.22;4977170;28;20231;-70
2021/08/16 09:47:00;;;;;;;8.88;4.45;;;;;;;24.31;68.86;96021.41;4976624;28;20218;-69
2021/08/16 09:49:26;;;;;;;8.30;4.63;;;;;;;24.60;68.57;96009.06;4976262;28;20638;-69
2021/08/16 09:52:02;;;;;;;11.55;4.95;;;;;;;24.97;67.84;95999.59;4977196;28;20268;-70
2021/08/16 09:54:28;;;;;;;11.93;4.93;;;;;;;24.66;69.74;95998.00;4977106;28;20235;-70
2021/08/16 09:56:56;;;;;;;12.73;4.65;;;;;;;24.49;70.15;96002.06;4975679;28;20207;-70
2021/08/16 09:59:25;;;;;;;9.90;4.97;;;;;;;24.18;67.64;96016.50;4977199;28;20207;-70
2021/08/16 10:01:51;;;;;;;8.70;4.40;;;;;;;23.82;67.49;96007.81;4977750;28;20797;-70
2021/08/16 10:04:18;;;;;;;10.15;4.53;;;;;;;24.08;67.94;95994.16;4977281;28;20570;-70
2021/08/16 10:06:45;;;;;;;10.20;4.13;;;;;;;24.65;67.27;95990.19;4972498;28;20222;-70
2021/08/16 10:09:13;;;;;;;8.40;3.03;;;;;;;24.35;65.05;95983.97;4977406;28;20215;-70
2021/08/16 10:11:42;;;;;;;9.77;3.70;;;;;;;24.67;64.54;95978.06;4977441;28;20233;-70
2021/08/16 10:14:09;;;;;;;6.55;3.58;;;;;;;24.53;65.21;95980.75;4977178;28;20235;-69
2021/08/16 10:16:43;;;;;;;9.50;4.05;;;;;;;25.05;63.09;95990.19;4975582;28;20199;-70
2021/08/16 10:19:13;;;;;;;7.78;3.92;;;;;;;24.80;63.75;95993.69;4977196;28;20203;-70
2021/08/16 10:21:42;;;;;;;9.63;3.80;;;;;;;24.68;62.84;95979.69;4976182;28;20208;-70
2021/08/16 10:24:17;;;;;;;6.28;3.63;;;;;;;24.50;63.68;95981.31;4976662;28;20230;-70
2021/08/16 10:26:54;;;;;;;8.40;4.18;;;;;;;24.60;62.21;95982.94;4975247;28;20264;-70
2021/08/16 10:29:22;;;;;;;8.07;3.55;;;;;;;23.88;63.08;95977.97;4976942;28;20203;-70
2021/08/16 10:31:52;;;;;;;10.30;3.70;;;;;;;24.23;63.06;95978.81;4976262;28;20234;-70
2021/08/16 10:34:25;;;;;;;6.00;3.28;;;;;;;24.43;63.34;95973.50;4976829;28;20255;-70
2021/08/16 10:36:56;;;;;;;10.27;3.63;;;;;;;24.67;64.07;95977.28;4975276;28;20235;-69
2021/08/16 10:39:34;;;;;;;9.13;3.75;;;;;;;24.79;62.05;95953.53;4976520;28;20204;-70
2021/08/16 10:42:05;;;;;;;6.75;4.00;;;;;;;24.89;64.35;95954.31;4976395;28;20546;-70
2021/08/16 10:44:39;;;;;;;7.55;4.10;;;;;;;25.17;66.12;95963.75;4975905;28;20666;-70
2021/08/16 10:47:07;;;;;;;12.80;4.43;;;;;;;25.10;66.43;95950.56;4975504;28;20211;-70
2021/08/16 10:49:34;;;;;;;10.23;4.22;;;;;;;24.86;66.70;95954.88;4976317;28;20210;-70
2021/08/16 10:52:01;;;;;;;6.38;3.95;;;;;;;24.57;69.21;95947.63;4976087;28;20614;-70
2021/08/16 10:54:29;;;;;;;8.93;4.35;;;;;;;24.47;65.35;95941.44;4975971;28;20231;-70
2021/08/16 10:56:59;;;;;;;6.82;4.22;;;;;;;24.40;66.59;95944.41;4975164;28;20695;-70
2021/08/16 10:59:27;;;;;;;7.38;3.95;;;;;;;24.19;67.33;95950.03;4975545;28;20207;-70
2021/08/16 11:01:54;;;;;;;15.10;3.78;;;;;;;24.43;66.35;95938.47;4975708;28;20694;-70
2021/08/16 11:04:31;;;;;;;9.73;4.45;;;;;;;24.69;66.95;95935.50;4976569;28;20223;-70
2021/08/16 11:07:00;;;;;;;8.57;3.88;;;;;;;24.48;65.02;95943.03;4972155;28;20214;-70
2021/08/16 11:09:28;;;;;;;8.90;3.70;;;;;;;24.25;66.59;95943.53;4975411;28;20253;-70
2021/08/16 11:12:01;;;;;;;7.53;3.50;;;;;;;24.24;65.20;95944.66;4975709;28;20226;-70
2021/08/16 11:14:28;;;;;;;11.02;3.88;;;;;;;24.33;65.01;95954.59;4976573;28;20232;-70
2021/08/16 11:16:55;;;;;;;8.20;3.50;;;;;;;23.82;64.64;95956.69;4975229;28;20215;-70
2021/08/16 11:19:23;;;;;;;9.38;3.70;;;;;;;24.22;66.09;95952.16;4975058;28;20208;-70
2021/08/16 11:21:58;;;;;;;10.10;3.90;;;;;;;23.98;64.65;95956.44;4976367;28;20210;-70